Time;durP1;ratioP1;P1;durP2;ratioP2;P2;SDS_P1;SDS_P2;PMS_P1;PMS_P2;Temp;Humidity;BMP_temperature;BMP_pressure;BME280_temperature;BME280_humidity;BME280_pressure;Samples;Min_cycle;Max_cycle;Signal;HPM_P1;HPM_P2
2023/11/20 00:01:34;;;;;;;2.03;1.20;;;12.20;99.90;;;;;;5072478;28;20175;-70
2023/11/20 00:04:00;;;;;;;5.63;2.00;;;12.20;99.90;;;;;;5072537;28;20170;-70
2023/11/20 00:06:27;;;;;;;7.10;1.27;;;12.20;99.90;;;;;;5072490;28;20219;-70
2023/11/20 00:08:53;;;;;;;8.40;1.10;;;12.30;99.90;;;;;;5072450;28;20509;-71
2023/11/20 00:11:18;;;;;;;5.23;1.00;;;12.20;99.90;;;;;;5072519;28;20408;-70
2023/11/20 00:13:45;;;;;;;2.50;1.40;;;12.30;99.90;;;;;;5072464;28;20462;-70
2023/11/20 00:16:11;;;;;;;3.10;1.03;;;12.30;99.90;;;;;;5072338;28;20245;-70
2023/11/20 00:18:37;;;;;;;4.80;1.30;;;12.30;99.90;;;;;;5072270;28;20487;-71
2023/11/20 00:21:03;;;;;;;2.43;1.10;;;12.30;99.90;;;;;;5071996;28;20503;-71
2023/11/20 00:23:29;;;;;;;4.40;1.63;;;12.20;99.90;;;;;;5072237;28;20495;-71
2023/11/20 00:25:54;;;;;;;2.83;1.30;;;12.10;99.90;;;;;;5072111;28;20656;-70
2023/11/20 00:28:20;;;;;;;11.53;1.83;;;12.00;99.90;;;;;;5072143;28;20162;-70
2023/11/20 00:30:45;;;;;;;4.80;1.70;;;12.00;99.90;;;;;;5048547;28;20190;-71
2023/11/20 00:33:11;;;;;;;9.83;1.87;;;11.90;99.90;;;;;;5070677;28;20236;-71
2023/11/20 00:35:36;;;;;;;9.80;1.63;;;11.80;99.90;;;;;;5054295;28;20593;-70
2023/11/20 00:38:03;;;;;;;3.40;1.87;;;11.80;99.90;;;;;;5072093;28;20162;-71
2023/11/20 00:40:29;;;;;;;2.67;1.53;;;11.70;99.90;;;;;;5072001;28;20778;-70
2023/11/20 00:42:54;;;;;;;6.93;1.90;;;11.70;99.90;;;;;;5071871;28;20420;-70
2023/11/20 00:45:20;;;;;;;6.83;1.63;;;11.60;99.90;;;;;;5071778;28;20218;-71
2023/11/20 00:47:45;;;;;;;3.13;1.50;;;11.60;99.90;;;;;;5053942;28;20170;-71
2023/11/20 00:50:11;;;;;;;5.33;1.50;;;11.60;99.90;;;;;;5071807;28;20292;-71
2023/11/20 00:52:36;;;;;;;13.47;1.90;;;11.60;99.90;;;;;;5071821;28;20722;-70
2023/11/20 00:55:10;;;;;;;8.10;1.87;;;11.60;99.90;;;;;;5053145;28;20174;-70
2023/11/20 00:57:36;;;;;;;9.70;1.90;;;11.50;99.90;;;;;;5071927;28;20645;-71
2023/11/20 01:00:03;;;;;;;3.40;1.70;;;11.60;99.90;;;;;;5053687;28;20432;-70
2023/11/20 01:02:29;;;;;;;4.93;2.03;;;11.60;99.90;;;;;;5071829;28;20405;-71
2023/11/20 01:04:54;;;;;;;6.73;1.53;;;11.60;99.90;;;;;;5071599;28;20414;-71
2023/11/20 01:07:20;;;;;;;7.13;2.03;;;11.70;99.90;;;;;;5071923;28;20248;-71
2023/11/20 01:09:45;;;;;;;5.63;1.80;;;11.70;99.90;;;;;;5071303;28;20565;-72
2023/11/20 01:12:11;;;;;;;4.90;1.73;;;11.80;99.90;;;;;;5071789;28;20564;-71
2023/11/20 01:14:36;;;;;;;8.10;1.80;;;11.70;99.90;;;;;;5053584;28;20201;-71
2023/11/20 01:17:02;;;;;;;4.03;1.50;;;11.70;99.90;;;;;;5071752;28;20162;-71
2023/11/20 01:19:27;;;;;;;5.43;1.60;;;11.70;99.90;;;;;;5071544;28;20618;-71
2023/11/20 01:21:53;;;;;;;4.07;2.43;;;11.80;99.90;;;;;;5071676;28;20166;-70
2023/11/20 01:24:19;;;;;;;10.23;1.57;;;11.70;99.90;;;;;;5071670;28;20159;-70
2023/11/20 01:26:45;;;;;;;2.13;1.50;;;11.70;99.90;;;;;;5071447;28;20511;-71
2023/11/20 01:29:10;;;;;;;6.67;1.80;;;11.70;99.90;;;;;;5070958;28;20189;-71
2023/11/20 01:31:36;;;;;;;4.93;1.70;;;11.70;99.90;;;;;;5071332;28;20402;-72
2023/11/20 01:34:01;;;;;;;4.07;1.63;;;11.70;99.90;;;;;;5053621;28;20174;-70
2023/11/20 01:36:27;;;;;;;4.00;1.57;;;11.70;99.90;;;;;;5071370;28;20630;-71
2023/11/20 01:38:52;;;;;;;3.33;1.50;;;11.80;99.90;;;;;;5071426;28;20194;-70
2023/11/20 01:41:18;;;;;;;11.27;1.40;;;11.80;99.90;;;;;;5071189;28;20216;-71
2023/11/20 01:43:43;;;;;;;3.33;1.80;;;11.80;99.90;;;;;;5071499;28;20778;-70
2023/11/20 01:46:12;;;;;;;8.90;1.63;;;11.70;99.90;;;;;;5071108;28;20166;-71
2023/11/20 01:48:39;;;;;;;4.83;1.57;;;11.70;99.90;;;;;;5071394;28;20170;-71
2023/11/20 01:51:06;;;;;;;3.07;1.03;;;11.60;99.90;;;;;;5071372;28;20521;-71
2023/11/20 01:53:35;;;;;;;6.83;1.43;;;11.70;99.90;;;;;;5071323;28;20831;-71
2023/11/20 01:56:00;;;;;;;3.13;1.63;;;11.70;99.90;;;;;;5071157;28;20401;-71
2023/11/20 01:58:26;;;;;;;3.50;1.50;;;11.70;99.90;;;;;;5053284;28;20515;-71
2023/11/20 02:00:52;;;;;;;3.53;1.77;;;11.60;99.90;;;;;;5071142;28;20208;-71
2023/11/20 02:03:19;;;;;;;5.80;1.10;;;11.50;99.90;;;;;;5071235;28;20400;-70
2023/11/20 02:05:46;;;;;;;5.80;1.47;;;11.50;99.90;;;;;;5071195;28;20744;-71
2023/11/20 02:08:13;;;;;;;5.00;1.43;;;11.40;99.90;;;;;;5073673;28;20419;-71
2023/11/20 02:10:39;;;;;;;10.90;1.73;;;11.40;99.90;;;;;;5074555;28;20445;-71
2023/11/20 02:13:06;;;;;;;3.93;1.70;;;11.30;99.90;;;;;;5056796;28;20832;-70
2023/11/20 02:15:32;;;;;;;3.57;1.40;;;11.20;99.90;;;;;;5074803;28;20169;-70
2023/11/20 02:17:57;;;;;;;4.23;1.60;;;11.30;99.90;;;;;;5074913;28;20463;-70
2023/11/20 02:20:24;;;;;;;2.50;2.07;;;11.20;99.90;;;;;;5056823;28;20434;-70
2023/11/20 02:22:50;;;;;;;3.63;1.87;;;11.20;99.90;;;;;;5074631;28;20196;-71
2023/11/20 02:25:17;;;;;;;6.00;1.50;;;11.20;99.90;;;;;;5056450;28;20421;-71
2023/11/20 02:28:05;;;;;;;2.33;1.07;;;11.20;99.90;;;;;;5074540;28;20400;-71
2023/11/20 02:30:31;;;;;;;2.47;1.20;;;11.20;99.90;;;;;;5074326;28;20459;-71
2023/11/20 02:32:57;;;;;;;4.20;1.27;;;11.30;99.90;;;;;;5074371;28;20513;-71
2023/11/20 02:35:24;;;;;;;3.30;1.60;;;11.20;99.90;;;;;;5056275;28;20408;-70
2023/11/20 02:37:50;;;;;;;6.87;1.80;;;11.30;99.90;;;;;;5074371;28;20158;-70
2023/11/20 02:40:15;;;;;;;3.83;1.43;;;11.30;99.90;;;;;;5073837;28;20519;-71
2023/11/20 02:42:41;;;;;;;5.27;1.23;;;11.20;99.90;;;;;;5074277;28;20170;-70
2023/11/20 02:45:07;;;;;;;4.67;1.40;;;11.20;99.90;;;;;;5056033;28;20802;-71
2023/11/20 02:47:34;;;;;;;1.33;1.03;;;11.20;99.90;;;;;;5074130;28;20261;-70
2023/11/20 02:50:00;;;;;;;5.23;1.73;;;11.20;99.90;;;;;;5073856;28;20498;-70
2023/11/20 02:52:25;;;;;;;2.70;1.50;;;11.20;99.90;;;;;;5055941;28;20965;-71
2023/11/20 02:54:51;;;;;;;6.30;1.33;;;11.20;99.90;;;;;;5073375;28;20218;-71
2023/11/20 02:57:16;;;;;;;5.63;1.67;;;11.30;99.90;;;;;;5073658;28;20166;-70
2023/11/20 02:59:42;;;;;;;6.27;1.20;;;11.30;99.90;;;;;;5073875;28;20190;-71
2023/11/20 03:02:07;;;;;;;4.73;1.30;;;11.30;99.90;;;;;;5073943;28;20178;-71
2023/11/20 03:04:33;;;;;;;2.80;1.40;;;11.40;99.90;;;;;;5073861;28;20198;-70
2023/11/20 03:06:59;;;;;;;4.83;1.50;;;11.50;99.90;;;;;;5073852;28;20189;-70
2023/11/20 03:09:24;;;;;;;5.17;1.20;;;11.50;99.90;;;;;;5055635;28;20448;-70
2023/11/20 03:11:50;;;;;;;6.10;1.80;;;11.60;99.90;;;;;;5073759;28;20666;-70
2023/11/20 03:14:15;;;;;;;5.33;1.20;;;11.60;99.90;;;;;;5055752;28;20174;-71
2023/11/20 03:16:41;;;;;;;1.37;1.07;;;11.60;99.90;;;;;;5073493;28;20504;-71
2023/11/20 03:19:06;;;;;;;2.67;1.17;;;11.70;99.90;;;;;;5073006;28;20624;-70
2023/11/20 03:21:36;;;;;;;1.40;1.00;;;11.60;99.90;;;;;;5073522;28;20531;-70
2023/11/20 03:24:02;;;;;;;3.10;1.10;;;11.50;99.90;;;;;;5055067;28;20511;-70
2023/11/20 03:26:28;;;;;;;6.57;1.50;;;11.50;99.90;;;;;;5073280;28;20968;-70
2023/11/20 03:28:54;;;;;;;7.73;1.13;;;11.40;99.90;;;;;;5073454;28;20424;-71
2023/11/20 03:31:19;;;;;;;1.93;1.00;;;11.30;99.90;;;;;;5073199;28;20202;-71
2023/11/20 03:33:48;;;;;;;3.57;1.57;;;11.30;99.90;;;;;;5073296;28;20169;-70
2023/11/20 03:36:14;;;;;;;3.10;1.10;;;11.40;99.90;;;;;;5073028;28;20625;-70
2023/11/20 03:38:40;;;;;;;5.50;1.53;;;11.40;99.90;;;;;;5072971;28;21004;-71
2023/11/20 03:41:07;;;;;;;3.10;1.23;;;11.50;99.90;;;;;;5073025;28;20407;-71
2023/11/20 03:43:32;;;;;;;3.50;1.30;;;11.50;99.90;;;;;;5073100;28;20404;-70
2023/11/20 03:45:58;;;;;;;3.70;1.00;;;11.60;99.90;;;;;;5072871;28;20825;-70
2023/11/20 03:48:23;;;;;;;3.90;2.90;;;11.60;99.90;;;;;;5072912;28;20162;-70
2023/11/20 03:50:49;;;;;;;4.27;2.70;;;11.70;99.90;;;;;;5072841;28;20537;-70
2023/11/20 03:53:14;;;;;;;0.90;0.70;;;11.70;99.90;;;;;;5054751;28;20190;-71
2023/11/20 03:55:40;;;;;;;1.70;1.00;;;11.70;99.90;;;;;;5072725;28;20169;-71
2023/11/20 03:58:06;;;;;;;1.63;1.10;;;11.70;99.90;;;;;;5072815;28;20166;-70
2023/11/20 04:00:31;;;;;;;3.10;1.20;;;11.70;99.90;;;;;;5072618;28;20231;-71
2023/11/20 04:03:00;;;;;;;5.40;1.70;;;11.70;99.90;;;;;;5072612;28;20618;-71
2023/11/20 04:05:26;;;;;;;3.60;1.50;;;11.70;99.90;;;;;;5072514;28;20170;-70
2023/11/20 04:07:51;;;;;;;6.40;3.10;;;11.70;99.90;;;;;;5072652;28;20746;-70
2023/11/20 04:10:17;;;;;;;2.60;1.30;;;11.70;99.90;;;;;;5072350;28;20201;-70
2023/11/20 04:12:45;;;;;;;2.70;1.37;;;11.70;99.90;;;;;;5072553;28;20162;-71
2023/11/20 04:15:10;;;;;;;2.70;1.10;;;11.60;99.90;;;;;;5054355;28;20405;-70
2023/11/20 04:17:36;;;;;;;1.43;0.70;;;11.60;99.90;;;;;;5072111;28;20526;-70
2023/11/20 04:20:03;;;;;;;1.27;0.90;;;11.70;99.90;;;;;;5071690;28;20235;-71
2023/11/20 04:22:29;;;;;;;2.93;1.13;;;11.60;99.90;;;;;;5053778;28;20171;-71
2023/11/20 04:24:54;;;;;;;4.67;1.30;;;11.60;99.90;;;;;;5069910;28;20420;-70
2023/11/20 04:27:20;;;;;;;5.03;1.77;;;11.70;99.90;;;;;;5072147;28;20185;-70
2023/11/20 04:29:45;;;;;;;2.87;1.43;;;11.70;99.90;;;;;;5071489;28;20202;-70
2023/11/20 04:32:11;;;;;;;4.80;1.40;;;11.70;99.90;;;;;;5072160;28;20546;-70
2023/11/20 04:34:36;;;;;;;2.80;1.33;;;11.70;99.90;;;;;;5072063;28;20173;-70
2023/11/20 04:37:02;;;;;;;2.67;1.00;;;11.70;99.90;;;;;;5054257;28;20261;-70
2023/11/20 04:39:27;;;;;;;4.90;1.23;;;11.70;99.90;;;;;;5071882;28;20213;-70
2023/11/20 04:41:53;;;;;;;3.70;1.20;;;11.60;99.90;;;;;;5072070;28;20178;-71
2023/11/20 04:44:18;;;;;;;5.77;1.50;;;11.70;99.90;;;;;;5072087;28;20170;-71
2023/11/20 04:46:44;;;;;;;4.20;0.80;;;11.70;99.90;;;;;;5071934;28;20189;-70
2023/11/20 04:49:09;;;;;;;2.60;1.13;;;11.70;99.90;;;;;;5071790;28;20285;-71
2023/11/20 04:51:35;;;;;;;4.23;1.37;;;11.60;99.90;;;;;;5071459;28;20174;-70
2023/11/20 04:54:00;;;;;;;7.13;1.07;;;11.70;99.90;;;;;;5072142;28;20713;-71
2023/11/20 04:56:26;;;;;;;7.43;1.90;;;11.70;99.90;;;;;;5071798;28;20227;-71
2023/11/20 04:58:51;;;;;;;3.70;1.30;;;11.70;99.90;;;;;;5053954;28;20201;-71
2023/11/20 05:01:17;;;;;;;5.50;1.47;;;11.70;99.90;;;;;;5071853;28;20174;-70
2023/11/20 05:03:43;;;;;;;4.50;1.20;;;11.70;99.90;;;;;;5071915;28;20690;-70
2023/11/20 05:06:10;;;;;;;5.20;1.63;;;11.70;99.90;;;;;;5071451;28;20166;-70
2023/11/20 05:08:36;;;;;;;4.07;1.40;;;11.70;99.90;;;;;;5053415;28;20257;-70
2023/11/20 05:11:02;;;;;;;6.20;1.90;;;11.80;99.90;;;;;;5053455;28;20452;-70
2023/11/20 05:13:28;;;;;;;9.47;4.87;;;11.80;99.90;;;;;;5071641;28;20419;-71
2023/11/20 05:15:54;;;;;;;5.10;1.33;;;11.70;99.90;;;;;;5071627;28;20499;-70
2023/11/20 05:18:19;;;;;;;4.70;1.53;;;11.70;99.90;;;;;;5071755;28;20403;-71
2023/11/20 05:20:45;;;;;;;3.57;1.50;;;11.80;99.90;;;;;;5071616;28;20680;-71
2023/11/20 05:23:11;;;;;;;4.90;1.80;;;11.80;99.90;;;;;;5071689;28;20173;-71
2023/11/20 05:25:36;;;;;;;3.60;0.90;;;11.90;99.90;;;;;;5071640;28;20174;-71
2023/11/20 05:28:02;;;;;;;9.20;2.70;;;11.90;99.90;;;;;;5071861;28;20231;-70
2023/11/20 05:30:28;;;;;;;15.47;2.07;;;11.90;99.90;;;;;;5071375;28;20244;-71
2023/11/20 05:32:53;;;;;;;6.13;1.80;;;11.90;99.90;;;;;;5071588;28;20170;-71
2023/11/20 05:35:19;;;;;;;8.87;2.30;;;11.80;99.90;;;;;;5053305;28;20232;-71
2023/11/20 05:37:46;;;;;;;6.60;2.00;;;11.80;99.90;;;;;;5071550;28;20621;-71
2023/11/20 05:40:13;;;;;;;9.80;3.37;;;11.90;99.90;;;;;;5071438;28;20420;-71
2023/11/20 05:42:39;;;;;;;3.17;2.40;;;11.90;99.90;;;;;;5057181;28;20458;-71
2023/11/20 05:45:06;;;;;;;5.67;1.87;;;11.80;99.90;;;;;;5075237;28;20822;-70
2023/11/20 05:47:31;;;;;;;6.50;1.50;;;11.80;99.90;;;;;;5075065;28;20408;-71
2023/11/20 05:49:57;;;;;;;6.40;2.03;;;11.80;99.90;;;;;;5074941;28;21092;-71
2023/11/20 05:52:22;;;;;;;3.70;1.70;;;11.60;99.90;;;;;;5075041;28;20190;-71
2023/11/20 05:54:48;;;;;;;16.67;2.33;;;11.60;99.90;;;;;;5075317;28;20643;-71
2023/11/20 05:57:13;;;;;;;5.43;1.70;;;11.70;99.90;;;;;;5075096;28;20241;-70
2023/11/20 05:59:39;;;;;;;10.40;1.97;;;11.70;99.90;;;;;;5074873;28;20182;-70
2023/11/20 06:02:04;;;;;;;8.73;2.13;;;11.60;99.90;;;;;;5057165;28;20197;-71
2023/11/20 06:04:30;;;;;;;1.90;1.33;;;11.60;99.90;;;;;;5074928;28;20181;-71
2023/11/20 06:06:55;;;;;;;8.90;1.47;;;11.50;99.90;;;;;;5074910;28;20167;-71
2023/11/20 06:09:21;;;;;;;5.30;2.07;;;11.50;99.90;;;;;;5056851;28;20205;-71
2023/11/20 06:11:50;;;;;;;5.40;2.63;;;11.50;99.90;;;;;;5074808;28;20181;-70
2023/11/20 06:14:16;;;;;;;8.73;1.73;;;11.50;99.90;;;;;;5074985;28;20945;-71
2023/11/20 06:16:42;;;;;;;5.43;1.43;;;11.40;99.90;;;;;;5074661;28;20396;-70
2023/11/20 06:19:07;;;;;;;6.93;2.53;;;11.50;99.90;;;;;;5074613;28;20474;-70
2023/11/20 06:21:33;;;;;;;5.20;2.20;;;11.50;99.90;;;;;;5074609;28;20197;-71
2023/11/20 06:23:59;;;;;;;7.53;1.70;;;11.50;99.90;;;;;;5056731;28;20177;-71
2023/11/20 06:26:25;;;;;;;3.53;1.77;;;11.50;99.90;;;;;;5056532;28;20443;-71
2023/11/20 06:28:51;;;;;;;5.17;1.73;;;11.50;99.90;;;;;;5074525;28;20420;-71
2023/11/20 06:31:17;;;;;;;6.13;1.67;;;11.50;99.90;;;;;;5074383;28;20444;-70
2023/11/20 06:33:43;;;;;;;3.67;1.93;;;11.50;99.90;;;;;;5074455;28;20158;-70
2023/11/20 06:36:10;;;;;;;4.23;1.77;;;11.40;99.90;;;;;;5056274;28;20404;-70
2023/11/20 06:38:35;;;;;;;5.53;1.90;;;11.50;99.90;;;;;;5074384;28;20167;-71
2023/11/20 06:41:02;;;;;;;7.53;2.30;;;11.50;99.90;;;;;;5074412;28;20781;-70
2023/11/20 06:43:28;;;;;;;11.70;2.47;;;11.40;99.90;;;;;;5056550;28;20654;-70
2023/11/20 06:45:54;;;;;;;4.20;1.57;;;11.40;99.90;;;;;;5074188;28;20405;-70
2023/11/20 06:48:19;;;;;;;9.63;2.07;;;11.50;99.90;;;;;;5073936;28;20406;-71
2023/11/20 06:50:45;;;;;;;5.93;1.87;;;11.50;99.90;;;;;;5074294;28;20197;-70
2023/11/20 06:53:10;;;;;;;8.57;1.60;;;11.50;99.90;;;;;;5073052;28;20182;-70
2023/11/20 06:55:36;;;;;;;3.33;2.47;;;11.50;99.90;;;;;;5056021;28;20162;-70
2023/11/20 06:58:02;;;;;;;4.43;1.80;;;11.50;99.90;;;;;;5074181;28;20162;-71
2023/11/20 07:00:28;;;;;;;5.03;1.47;;;11.50;99.90;;;;;;5073851;28;20232;-71
2023/11/20 07:02:54;;;;;;;8.70;1.77;;;11.60;99.90;;;;;;5073696;28;20173;-71
2023/11/20 07:05:20;;;;;;;3.50;1.77;;;11.70;99.90;;;;;;5073140;28;20166;-70
2023/11/20 07:07:52;;;;;;;10.07;1.97;;;11.60;99.90;;;;;;5073875;28;20400;-71
2023/11/20 07:10:25;;;;;;;4.47;1.90;;;11.60;99.90;;;;;;5073460;28;20444;-71
2023/11/20 07:12:55;;;;;;;4.73;1.67;;;11.60;99.90;;;;;;5073758;28;20816;-71
2023/11/20 07:15:22;;;;;;;8.77;1.30;;;11.60;99.90;;;;;;5073381;28;20428;-71
2023/11/20 07:17:47;;;;;;;5.60;1.63;;;11.60;99.90;;;;;;5073634;28;20407;-71
2023/11/20 07:20:13;;;;;;;5.37;1.97;;;11.60;99.90;;;;;;5055679;28;20436;-71
2023/11/20 07:22:39;;;;;;;2.40;1.73;;;11.60;99.90;;;;;;5073617;28;20265;-71
2023/11/20 07:25:05;;;;;;;7.33;2.37;;;11.60;99.90;;;;;;5073364;28;20503;-71
2023/11/20 07:27:31;;;;;;;3.40;1.40;;;11.60;99.90;;;;;;5073539;28;20166;-70
2023/11/20 07:29:57;;;;;;;14.13;1.70;;;11.70;99.90;;;;;;5073128;28;21086;-71
2023/11/20 07:32:22;;;;;;;5.43;1.63;;;11.60;99.90;;;;;;5073379;28;20520;-71
2023/11/20 07:34:48;;;;;;;6.90;2.13;;;11.70;99.90;;;;;;5073098;28;20771;-71
2023/11/20 07:37:14;;;;;;;13.00;2.97;;;11.60;99.90;;;;;;5073454;28;20158;-71
2023/11/20 07:39:40;;;;;;;5.87;1.80;;;11.60;99.90;;;;;;5073222;28;20567;-69
2023/11/20 07:42:06;;;;;;;6.27;1.73;;;11.50;99.90;;;;;;5055150;28;20166;-69
2023/11/20 07:44:33;;;;;;;8.03;1.70;;;11.60;99.90;;;;;;5054765;28;20482;-68
2023/11/20 07:46:59;;;;;;;3.77;1.73;;;11.70;99.90;;;;;;5073000;28;20411;-69
2023/11/20 07:49:26;;;;;;;7.30;1.57;;;11.70;99.90;;;;;;5072686;28;20474;-69
2023/11/20 07:51:52;;;;;;;9.10;1.70;;;11.80;99.90;;;;;;5072731;28;20404;-69
2023/11/20 07:54:18;;;;;;;9.70;2.10;;;11.90;99.90;;;;;;5072890;28;20914;-69
2023/11/20 07:56:43;;;;;;;15.70;2.90;;;11.80;99.90;;;;;;5072629;28;20163;-69
2023/11/20 07:59:09;;;;;;;7.60;1.40;;;11.70;99.90;;;;;;5072734;28;20661;-68
2023/11/20 08:01:36;;;;;;;4.83;2.20;;;11.60;99.90;;;;;;5072636;28;20165;-69
2023/11/20 08:04:04;;;;;;;8.00;3.50;;;11.50;99.90;;;;;;5072622;28;20191;-70
2023/11/20 08:06:32;;;;;;;12.13;2.70;;;11.50;99.90;;;;;;5072474;28;20397;-70
2023/11/20 08:08:58;;;;;;;4.93;1.30;;;11.60;99.90;;;;;;5072527;28;20855;-70
2023/11/20 08:11:23;;;;;;;10.10;1.73;;;11.80;99.90;;;;;;5072338;28;20460;-70
2023/11/20 08:13:49;;;;;;;4.27;1.60;;;12.10;99.90;;;;;;5072408;28;20302;-70
2023/11/20 08:16:15;;;;;;;3.50;1.87;;;12.40;99.90;;;;;;5072269;28;20245;-70
2023/11/20 08:18:40;;;;;;;9.73;2.00;;;12.80;99.90;;;;;;5072231;28;20679;-70
2023/11/20 08:21:06;;;;;;;8.03;2.17;;;13.60;99.90;;;;;;5054395;28;20170;-70
2023/11/20 08:23:32;;;;;;;5.70;1.27;;;14.40;99.90;;;;;;5072291;28;20166;-70
2023/11/20 08:25:58;;;;;;;6.10;2.50;;;15.60;99.90;;;;;;5072121;28;20174;-70
2023/11/20 08:28:24;;;;;;;8.20;2.30;;;16.60;99.90;;;;;;5072278;28;20630;-70
2023/11/20 08:30:49;;;;;;;9.20;1.80;;;17.30;99.90;;;;;;5072174;28;20448;-71
2023/11/20 08:33:15;;;;;;;6.23;2.07;;;17.70;99.90;;;;;;5054288;28;20540;-71
2023/11/20 08:35:41;;;;;;;2.90;1.40;;;17.50;99.90;;;;;;5072049;28;20512;-70
2023/11/20 08:38:06;;;;;;;6.60;2.03;;;17.10;99.90;;;;;;5054330;28;20203;-70
2023/11/20 08:40:32;;;;;;;2.80;1.40;;;16.70;99.90;;;;;;5071924;28;20615;-70
2023/11/20 08:42:57;;;;;;;4.40;1.53;;;16.50;99.90;;;;;;5071997;28;20208;-70
2023/11/20 08:45:23;;;;;;;4.40;1.63;;;17.20;99.90;;;;;;5071849;28;20181;-70
2023/11/20 08:47:48;;;;;;;4.70;1.97;;;18.50;99.90;;;;;;5071952;28;20633;-70
2023/11/20 08:50:14;;;;;;;2.10;1.50;;;19.30;99.90;;;;;;5071802;28;20704;-70
2023/11/20 08:52:39;;;;;;;4.20;1.40;;;19.20;99.90;;;;;;5071802;28;20174;-71
2023/11/20 08:55:06;;;;;;;3.57;1.60;;;18.60;99.90;;;;;;5071923;28;20158;-71
2023/11/20 08:57:32;;;;;;;6.63;1.70;;;17.50;99.90;;;;;;5071837;28;20162;-71
2023/11/20 08:59:58;;;;;;;4.70;1.33;;;16.90;99.90;;;;;;5071811;28;20421;-70
2023/11/20 09:02:24;;;;;;;5.07;1.73;;;16.30;99.90;;;;;;5071914;28;20170;-70
2023/11/20 09:04:50;;;;;;;2.60;1.33;;;15.60;99.90;;;;;;5053610;28;20170;-70
2023/11/20 09:07:15;;;;;;;3.73;1.33;;;15.10;99.90;;;;;;5071877;28;20404;-70
2023/11/20 09:09:41;;;;;;;6.00;1.70;;;15.00;99.90;;;;;;5071596;28;20838;-70
2023/11/20 09:12:07;;;;;;;4.67;1.43;;;15.00;99.90;;;;;;5071446;28;20159;-71
2023/11/20 09:14:33;;;;;;;6.63;1.57;;;14.60;99.90;;;;;;5071519;28;20899;-70
2023/11/20 09:16:59;;;;;;;5.53;1.33;;;14.40;99.90;;;;;;5076509;28;20154;-71
2023/11/20 09:19:24;;;;;;;3.67;1.10;;;14.00;99.90;;;;;;5078388;28;20177;-70
2023/11/20 09:21:50;;;;;;;4.80;1.57;;;13.70;99.90;;;;;;5078229;28;20480;-70
2023/11/20 09:24:15;;;;;;;4.40;1.20;;;13.60;99.90;;;;;;5078463;28;20657;-70
2023/11/20 09:26:42;;;;;;;4.57;1.30;;;13.60;99.90;;;;;;5078280;28;20536;-70
2023/11/20 09:29:10;;;;;;;2.20;1.30;;;13.50;99.90;;;;;;5078283;28;20430;-70
2023/11/20 09:31:35;;;;;;;3.50;1.17;;;13.50;99.90;;;;;;5078271;28;20162;-70
2023/11/20 09:34:01;;;;;;;2.20;1.10;;;13.40;99.90;;;;;;5078250;28;20400;-70
2023/11/20 09:36:27;;;;;;;14.60;1.40;;;13.40;99.90;;;;;;5078096;28;20396;-70
2023/11/20 09:38:53;;;;;;;4.77;1.20;;;13.20;99.90;;;;;;5078187;28;20550;-70
2023/11/20 09:41:18;;;;;;;1.40;0.90;;;13.00;99.90;;;;;;5078062;28;20404;-70
2023/11/20 09:43:44;;;;;;;2.90;1.20;;;13.10;99.90;;;;;;5078161;28;20173;-70
2023/11/20 09:46:13;;;;;;;3.10;1.00;;;13.10;99.90;;;;;;5078016;28;20162;-70
2023/11/20 09:48:39;;;;;;;3.17;1.40;;;13.20;99.90;;;;;;5078108;28;20404;-70
2023/11/20 09:51:08;;;;;;;6.83;1.60;;;13.40;99.90;;;;;;5078055;28;20479;-70
2023/11/20 09:53:39;;;;;;;4.60;1.33;;;13.60;99.90;;;;;;5077985;28;20699;-70
2023/11/20 09:56:09;;;;;;;5.47;1.63;;;13.60;99.90;;;;;;5078105;28;20403;-70
2023/11/20 09:58:36;;;;;;;5.57;1.13;;;13.60;99.90;;;;;;5078083;28;20404;-70
2023/11/20 10:01:05;;;;;;;3.40;1.50;;;13.70;99.90;;;;;;5060077;28;20463;-70
2023/11/20 10:03:31;;;;;;;4.73;1.80;;;13.90;99.90;;;;;;5077916;28;21150;-70
2023/11/20 10:05:59;;;;;;;4.53;1.03;;;14.10;99.90;;;;;;5077794;28;20422;-70
2023/11/20 10:08:27;;;;;;;2.73;1.27;;;14.10;99.90;;;;;;5077929;28;20438;-70
2023/11/20 10:10:53;;;;;;;4.90;1.60;;;14.00;99.90;;;;;;5077840;28;20451;-69
2023/11/20 10:13:19;;;;;;;3.37;1.20;;;13.90;99.90;;;;;;5078038;28;20415;-70
2023/11/20 10:15:46;;;;;;;1.77;0.90;;;13.90;99.90;;;;;;5077710;28;20676;-70
2023/11/20 10:18:12;;;;;;;4.93;1.63;;;13.80;99.90;;;;;;5077952;28;20408;-70
2023/11/20 10:20:49;;;;;;;5.60;1.00;;;13.70;99.90;;;;;;5077668;28;20477;-70
2023/11/20 10:23:15;;;;;;;6.13;1.30;;;13.60;99.90;;;;;;5077698;28;20177;-70
2023/11/20 10:25:45;;;;;;;3.30;1.60;;;13.70;99.90;;;;;;5079365;28;20476;-70
2023/11/20 10:28:13;;;;;;;2.30;1.23;;;13.50;99.90;;;;;;5092628;28;21719;-70
2023/11/20 10:30:41;;;;;;;3.00;0.90;;;13.40;99.90;;;;;;5094141;28;20458;-70
2023/11/20 10:33:17;;;;;;;2.80;1.37;;;13.50;99.90;;;;;;5095035;28;20415;-70
2023/11/20 10:35:44;;;;;;;3.27;1.30;;;13.40;99.90;;;;;;5093935;28;21229;-70
2023/11/20 10:38:10;;;;;;;2.00;0.97;;;13.40;99.90;;;;;;5094756;28;20445;-70
2023/11/20 10:40:38;;;;;;;3.23;1.00;;;13.30;99.90;;;;;;5094421;28;20427;-70
2023/11/20 10:43:05;;;;;;;7.13;1.33;;;13.20;99.90;;;;;;5094656;28;20410;-70
2023/11/20 10:45:33;;;;;;;5.17;1.00;;;13.20;99.90;;;;;;5075738;28;20407;-70
2023/11/20 10:47:59;;;;;;;3.47;1.47;;;13.10;99.90;;;;;;5094452;28;20443;-70
2023/11/20 10:50:25;;;;;;;3.73;3.20;;;13.10;99.90;;;;;;5094154;28;20953;-70
2023/11/20 10:52:54;;;;;;;4.20;1.23;;;13.10;99.90;;;;;;5094376;28;20452;-70
2023/11/20 10:55:26;;;;;;;1.10;0.90;;;13.10;99.90;;;;;;5091631;28;20407;-70
2023/11/20 10:57:52;;;;;;;2.07;0.80;;;13.00;99.90;;;;;;5094440;28;20770;-69
2023/11/20 11:00:21;;;;;;;3.20;1.30;;;12.90;99.90;;;;;;5094316;28;20439;-69
2023/11/20 11:02:48;;;;;;;3.43;2.97;;;13.00;99.90;;;;;;5075953;28;20422;-70
2023/11/20 11:05:15;;;;;;;1.00;0.80;;;13.10;99.90;;;;;;5094292;28;20415;-69
2023/11/20 11:07:42;;;;;;;2.57;0.90;;;13.20;99.90;;;;;;5094131;28;20416;-69
2023/11/20 11:10:10;;;;;;;4.43;1.30;;;13.30;99.90;;;;;;5091910;28;20503;-69
2023/11/20 11:12:42;;;;;;;1.50;0.97;;;13.20;99.90;;;;;;5092805;28;20943;-70
2023/11/20 11:15:15;;;;;;;5.27;1.00;;;13.40;99.90;;;;;;5094068;28;20407;-71
2023/11/20 11:17:46;;;;;;;2.40;0.83;;;13.30;99.90;;;;;;5093506;28;20428;-69
2023/11/20 11:20:14;;;;;;;2.80;1.20;;;13.20;99.90;;;;;;5093963;28;20471;-70
2023/11/20 11:22:45;;;;;;;1.60;1.30;;;12.80;99.90;;;;;;5093623;28;20411;-70
2023/11/20 11:25:12;;;;;;;1.10;1.00;;;12.80;99.90;;;;;;5093677;28;20395;-70
2023/11/20 11:27:58;;;;;;;2.40;1.27;;;12.40;99.90;;;;;;5075414;28;20472;-69
2023/11/20 11:30:25;;;;;;;1.67;1.07;;;12.30;99.90;;;;;;5093744;28;20462;-69
2023/11/20 11:33:10;;;;;;;6.53;1.03;;;12.10;99.90;;;;;;5093642;28;20412;-69
2023/11/20 11:35:58;;;;;;;0.97;0.73;;;12.00;99.90;;;;;;5070968;28;20424;-69
2023/11/20 11:38:55;;;;;;;1.70;0.97;;;12.00;99.90;;;;;;5072666;28;20419;-69
2023/11/20 11:41:21;;;;;;;2.93;1.50;;;11.90;99.90;;;;;;5073308;28;20405;-69
2023/11/20 11:44:10;;;;;;;1.10;0.73;;;11.70;99.90;;;;;;5054881;28;20428;-70
2023/11/20 11:46:36;;;;;;;2.20;1.07;;;11.80;99.90;;;;;;5073021;28;20166;-69
2023/11/20 11:49:21;;;;;;;1.53;1.20;;;11.90;99.90;;;;;;5073127;28;20428;-69
2023/11/20 11:51:51;;;;;;;3.03;1.30;;;12.30;99.90;;;;;;5072730;28;20198;-69
2023/11/20 11:54:18;;;;;;;2.70;1.07;;;13.90;99.90;;;;;;5072634;28;20431;-70
2023/11/20 11:56:57;;;;;;;0.90;0.80;;;16.40;99.90;;;;;;5072354;28;20427;-70
2023/11/20 11:59:40;;;;;;;2.80;1.10;;;17.30;99.90;;;;;;5072218;28;20421;-70
2023/11/20 12:02:07;;;;;;;1.77;0.80;;;17.30;99.90;;;;;;5072427;28;20408;-69
2023/11/20 12:04:51;;;;;;;1.07;0.80;;;17.10;99.90;;;;;;5072540;28;20826;-70
2023/11/20 12:07:17;;;;;;;5.40;1.10;;;16.90;99.90;;;;;;5072562;28;20466;-69
2023/11/20 12:09:57;;;;;;;1.57;0.93;;;16.40;99.90;;;;;;5072431;28;20456;-70
2023/11/20 12:12:50;;;;;;;1.33;0.90;;;15.70;99.90;;;;;;5072731;28;20412;-69
2023/11/20 12:15:40;;;;;;;1.93;1.10;;;15.30;99.90;;;;;;5072587;28;20399;-69
2023/11/20 12:18:06;;;;;;;1.90;1.00;;;14.90;99.90;;;;;;5072583;28;20771;-70
2023/11/20 12:20:43;;;;;;;1.57;1.00;;;14.80;99.90;;;;;;5054637;28;20542;-70
2023/11/20 12:23:39;;;;;;;3.50;1.47;;;14.40;99.90;;;;;;5071142;28;20420;-69
2023/11/20 12:26:09;;;;;;;3.43;1.30;;;14.10;99.90;;;;;;5051191;28;20470;-69
2023/11/20 12:28:36;;;;;;;2.77;1.10;;;13.90;99.90;;;;;;5071839;28;20403;-69
2023/11/20 12:31:20;;;;;;;1.87;0.90;;;13.80;99.90;;;;;;5071730;28;20497;-69
2023/11/20 12:33:47;;;;;;;3.30;1.10;;;13.70;99.90;;;;;;5072207;28;20401;-69
2023/11/20 12:36:13;;;;;;;2.93;1.30;;;13.40;99.90;;;;;;5071270;28;20403;-69
2023/11/20 12:38:43;;;;;;;3.97;1.27;;;13.20;99.90;;;;;;5053929;28;20421;-69
2023/11/20 12:41:09;;;;;;;1.97;1.37;;;13.00;99.90;;;;;;5072049;28;20407;-69
2023/11/20 12:43:38;;;;;;;4.67;1.03;;;12.80;99.90;;;;;;5054280;28;20435;-69
2023/11/20 12:46:05;;;;;;;2.90;0.97;;;12.60;99.90;;;;;;5054009;28;20500;-70